Time;durP1;ratioP1;P1;durP2;ratioP2;P2;SDS_P1;SDS_P2;PMS_P1;PMS_P2;Temp;Humidity;BMP_temperature;BMP_pressure;BME280_temperature;BME280_humidity;BME280_pressure;Samples;Min_cycle;Max_cycle;Signal;HPM_P1;HPM_P2
2022/03/03 04:59:33;;;;;;;35.92;19.73;;;;;;;1.75;50.94;100626.84;5605062;31;82056;-54
2022/03/03 05:02:36;;;;;;;33.15;20.70;;;;;;;1.71;50.04;100630.97;5581865;31;33392;-54
2022/03/03 05:05:38;;;;;;;36.05;20.85;;;;;;;1.68;50.44;100631.38;5583906;32;33741;-55
2022/03/03 05:08:40;;;;;;;37.78;23.25;;;;;;;1.56;50.63;100618.06;5583627;32;34260;-54
2022/03/03 05:11:44;;;;;;;36.70;21.35;;;;;;;1.58;50.78;100623.94;5583478;31;33706;-54
2022/03/03 05:14:46;;;;;;;36.97;21.73;;;;;;;1.74;50.52;100627.88;5582382;32;33685;-54
2022/03/03 05:17:48;;;;;;;36.38;21.25;;;;;;;1.77;50.37;100627.47;5583205;31;33777;-55
2022/03/03 05:20:50;;;;;;;40.12;22.37;;;;;;;1.85;49.71;100635.12;5583243;31;34040;-54
2022/03/03 05:23:58;;;;;;;38.15;22.75;;;;;;;1.75;50.33;100632.16;5583407;31;33695;-54
2022/03/03 05:27:01;;;;;;;34.85;21.95;;;;;;;1.96;50.17;100630.16;5583507;31;34216;-54
2022/03/03 05:30:04;;;;;;;37.35;23.83;;;;;;;1.91;50.17;100630.00;5582132;31;33582;-54
2022/03/03 05:33:08;;;;;;;34.15;22.25;;;;;;;1.82;50.30;100632.94;5583451;31;33754;-54
2022/03/03 05:36:11;;;;;;;35.10;22.62;;;;;;;1.81;50.54;100638.41;5582880;32;33435;-53
2022/03/03 05:39:15;;;;;;;36.00;23.33;;;;;;;1.87;50.75;100625.12;5583110;32;34426;-54
2022/03/03 05:42:19;;;;;;;40.92;25.52;;;;;;;1.97;50.05;100637.06;5582351;31;33702;-54
2022/03/03 05:45:23;;;;;;;44.05;27.35;;;;;;;1.89;50.20;100630.22;5582563;31;33667;-54
2022/03/03 05:48:26;;;;;;;42.50;26.50;;;;;;;2.34;49.01;100633.44;5582992;31;34220;-54
2022/03/03 05:51:28;;;;;;;44.13;26.85;;;;;;;2.34;49.07;100628.16;5595410;31;34303;-54
2022/03/03 05:54:30;;;;;;;39.13;25.12;;;;;;;2.28;49.40;100636.97;5580488;31;34422;-55
2022/03/03 05:57:38;;;;;;;39.30;25.00;;;;;;;2.09;49.56;100640.63;5573831;32;34299;-54
2022/03/03 06:00:43;;;;;;;46.33;26.45;;;;;;;2.04;50.12;100637.81;5572893;32;33654;-54
2022/03/03 06:03:47;;;;;;;42.17;25.85;;;;;;;1.96;50.33;100641.56;5579364;32;33844;-54
2022/03/03 06:06:58;;;;;;;40.38;26.12;;;;;;;2.18;50.46;100639.28;5570502;32;33135;-55
2022/03/03 06:10:03;;;;;;;38.63;23.70;;;;;;;2.15;50.73;100649.50;5561881;31;34434;-54
2022/03/03 06:13:30;;;;;;;38.75;23.60;;;;;;;2.04;51.15;100649.19;5562078;32;34078;-54
2022/03/03 06:16:32;;;;;;;;;;;;;;;2.21;51.09;100643.34;5560449;32;33693;-54
2022/03/03 06:19:41;;;;;;;41.15;24.73;;;;;;;2.28;50.34;100642.25;5555238;32;34522;-54
2022/03/03 06:22:44;;;;;;;40.55;24.00;;;;;;;2.27;50.29;100640.63;5559830;32;33589;-54
2022/03/03 06:26:03;;;;;;;35.65;22.05;;;;;;;2.46;50.15;100641.47;5549959;32;33736;-54
2022/03/03 06:29:05;;;;;;;41.10;25.58;;;;;;;2.65;49.56;100652.88;5565846;32;33758;-55
2022/03/03 06:32:08;;;;;;;46.40;25.75;;;;;;;2.67;49.40;100648.16;5569386;32;33663;-54
2022/03/03 06:35:12;;;;;;;47.08;25.92;;;;;;;2.51;49.63;100651.38;5569770;32;34235;-53
2022/03/03 06:38:15;;;;;;;38.85;24.35;;;;;;;2.49;50.22;100648.97;5558237;32;33618;-54
2022/03/03 06:41:17;;;;;;;42.10;24.65;;;;;;;2.58;50.25;100660.06;5558292;32;33699;-54
2022/03/03 06:44:20;;;;;;;41.75;25.17;;;;;;;2.56;50.65;100659.50;5558734;32;33840;-55
2022/03/03 06:47:22;;;;;;;38.20;25.55;;;;;;;2.67;50.49;100664.03;5565495;32;33697;-54
2022/03/03 06:50:25;;;;;;;44.08;25.55;;;;;;;2.81;50.04;100654.94;5552755;32;33590;-54
2022/03/03 06:53:30;;;;;;;46.33;26.80;;;;;;;3.02;49.55;100658.94;5557378;32;33573;-55
2022/03/03 06:56:34;;;;;;;38.88;25.90;;;;;;;3.03;49.55;100657.09;5558868;32;33647;-55
2022/03/03 06:59:39;;;;;;;45.78;26.80;;;;;;;3.15;49.64;100652.66;5558281;32;33684;-54
2022/03/03 07:02:50;;;;;;;49.13;26.50;;;;;;;3.28;49.84;100659.62;5554064;32;33333;-54
2022/03/03 07:05:53;;;;;;;41.97;26.12;;;;;;;3.53;49.28;100660.28;5560661;32;33295;-54
2022/03/03 07:08:56;;;;;;;43.95;25.67;;;;;;;3.44;49.07;100656.31;5560245;32;33463;-54
2022/03/03 07:12:03;;;;;;;52.30;25.67;;;;;;;3.50;50.65;100658.06;5559075;32;34085;-55
2022/03/03 07:15:08;;;;;;;42.17;26.35;;;;;;;3.63;49.08;100657.06;5567962;32;34025;-54
2022/03/03 07:18:15;;;;;;;36.33;25.75;;;;;;;3.89;48.88;100652.41;5561999;32;33133;-54
2022/03/03 07:21:30;;;;;;;;;;;;;;;3.94;48.86;100653.34;5562859;32;34461;-54
2022/03/03 07:24:39;;;;;;;41.03;24.67;;;;;;;4.13;48.75;100656.66;5558893;32;33872;-54
2022/03/03 07:27:44;;;;;;;42.75;24.85;;;;;;;4.14;48.61;100652.16;5565463;32;33732;-54
2022/03/03 07:30:49;;;;;;;41.05;24.65;;;;;;;4.30;48.96;100642.72;5557964;32;33121;-55
2022/03/03 07:33:56;;;;;;;37.83;24.50;;;;;;;4.71;47.30;100650.50;5563359;32;34372;-54
2022/03/03 07:37:07;;;;;;;40.10;25.33;;;;;;;4.69;48.10;100647.28;5547880;32;33719;-54
2022/03/03 07:40:10;;;;;;;36.92;24.95;;;;;;;4.58;48.25;100645.47;5549621;32;33562;-55
2022/03/03 07:43:14;;;;;;;40.35;25.15;;;;;;;4.70;48.19;100645.41;5563867;32;34338;-54
2022/03/03 07:46:16;;;;;;;40.80;26.52;;;;;;;4.78;47.38;100630.97;5560308;32;34412;-54
2022/03/03 07:49:21;;;;;;;40.47;26.58;;;;;;;4.84;47.48;100633.50;5556391;32;33754;-54
2022/03/03 07:52:24;;;;;;;43.40;26.90;;;;;;;4.99;48.20;100627.66;5556103;32;33685;-54
2022/03/03 07:55:28;;;;;;;39.75;25.73;;;;;;;4.85;47.49;100632.47;5562956;32;33759;-54
2022/03/03 07:58:33;;;;;;;40.85;25.58;;;;;;;4.84;47.19;100627.37;5552182;32;34283;-53
2022/03/03 08:01:36;;;;;;;46.40;26.43;;;;;;;4.92;47.37;100621.69;5559775;32;33640;-54
2022/03/03 08:04:41;;;;;;;41.10;25.08;;;;;;;5.11;46.75;100622.31;5567532;32;34343;-54
2022/03/03 08:07:45;;;;;;;38.00;24.25;;;;;;;5.08;46.85;100623.59;5565329;32;33625;-53
2022/03/03 08:10:47;;;;;;;33.22;22.98;;;;;;;5.33;46.35;100620.59;5554112;32;33697;-54
2022/03/03 08:13:52;;;;;;;39.20;24.17;;;;;;;5.32;46.21;100620.81;5549237;32;33569;-54
2022/03/03 08:16:54;;;;;;;39.00;24.80;;;;;;;5.48;45.87;100620.03;5555397;32;33879;-54
2022/03/03 08:19:57;;;;;;;35.33;23.42;;;;;;;5.63;45.56;100616.84;5559356;32;33630;-54
2022/03/03 08:23:01;;;;;;;33.63;22.60;;;;;;;5.76;44.84;100616.53;5560759;32;33789;-54
2022/03/03 08:26:04;;;;;;;36.42;23.17;;;;;;;5.93;44.01;100616.53;5563694;32;32403;-54
2022/03/03 08:29:06;;;;;;;39.75;22.52;;;;;;;6.01;44.40;100610.00;5567765;32;33671;-54
2022/03/03 08:32:13;;;;;;;35.50;21.52;;;;;;;6.11;44.81;100604.81;5550064;32;33335;-55
2022/03/03 08:35:21;;;;;;;33.63;21.85;;;;;;;6.19;44.69;100604.41;5563792;32;33560;-55
2022/03/03 08:38:34;;;;;;;40.58;21.20;;;;;;;6.28;44.44;100596.78;5553928;32;34139;-54
2022/03/03 08:41:39;;;;;;;30.67;21.90;;;;;;;6.22;44.17;100606.56;5551992;32;33207;-54
2022/03/03 08:44:43;;;;;;;34.15;20.40;;;;;;;6.17;44.17;100601.19;5559983;32;33579;-54
2022/03/03 08:47:56;;;;;;;30.48;19.45;;;;;;;6.13;43.89;100594.75;5557544;32;34241;-54
2022/03/03 08:51:04;;;;;;;34.45;19.58;;;;;;;6.36;43.90;100588.41;5552092;32;33971;-54
2022/03/03 08:54:07;;;;;;;28.42;19.33;;;;;;;6.58;43.81;100593.72;5567132;32;33596;-53
2022/03/03 08:57:09;;;;;;;35.10;19.65;;;;;;;6.62;43.21;100594.03;5557841;32;33715;-55
2022/03/03 09:00:13;;;;;;;28.40;18.52;;;;;;;6.69;42.95;100587.47;5553496;32;33344;-54
2022/03/03 09:03:24;;;;;;;30.17;19.30;;;;;;;7.00;41.29;100591.25;5567097;32;34219;-54
2022/03/03 09:06:27;;;;;;;26.30;18.58;;;;;;;7.01;41.79;100597.38;5567483;32;34338;-54
2022/03/03 09:09:30;;;;;;;29.58;17.30;;;;;;;7.01;42.05;100611.50;5557133;32;33696;-55
2022/03/03 09:12:38;;;;;;;29.05;17.02;;;;;;;7.00;41.91;100604.59;5554312;32;33702;-54
2022/03/03 09:15:40;;;;;;;29.70;16.92;;;;;;;7.14;41.58;100596.19;5551250;32;33147;-54
2022/03/03 09:18:45;;;;;;;29.02;18.48;;;;;;;7.42;40.36;100590.59;5546460;32;33018;-54
2022/03/03 09:21:48;;;;;;;28.23;18.42;;;;;;;7.47;40.83;100595.16;5560530;32;33778;-54
2022/03/03 09:24:53;;;;;;;30.77;17.20;;;;;;;7.45;41.04;100594.59;5567562;32;33636;-54
2022/03/03 09:27:55;;;;;;;29.40;18.00;;;;;;;7.50;40.93;100602.66;5558908;32;33247;-54
2022/03/03 09:30:57;;;;;;;27.70;18.15;;;;;;;7.37;40.98;100603.88;5561617;32;33690;-54
2022/03/03 09:33:59;;;;;;;39.45;18.77;;;;;;;7.40;40.79;100595.38;5559647;32;34315;-54
2022/03/03 09:37:03;;;;;;;34.03;18.08;;;;;;;7.59;41.04;100595.81;5553787;32;34347;-54
2022/03/03 09:40:08;;;;;;;36.22;18.67;;;;;;;7.57;40.62;100597.09;5555386;32;33443;-54
2022/03/03 09:43:11;;;;;;;31.65;18.67;;;;;;;7.46;41.08;100596.22;5557315;32;33528;-55
2022/03/03 09:46:13;;;;;;;47.35;21.62;;;;;;;7.56;40.94;100592.84;5557714;32;33647;-55
2022/03/03 09:49:17;;;;;;;32.88;19.33;;;;;;;7.76;39.98;100585.78;5560136;32;33592;-54
2022/03/03 09:52:19;;;;;;;25.37;17.52;;;;;;;7.76;39.91;100585.00;5563555;32;34220;-54
2022/03/03 09:55:22;;;;;;;36.72;17.48;;;;;;;7.91;39.10;100584.28;5561895;32;33740;-55
2022/03/03 09:58:25;;;;;;;29.42;17.70;;;;;;;7.91;39.50;100584.28;5562752;32;34137;-54
2022/03/03 10:01:28;;;;;;;25.67;17.85;;;;;;;8.08;38.45;100581.44;5561161;32;33599;-54
2022/03/03 10:04:33;;;;;;;28.48;17.75;;;;;;;7.88;39.41;100582.94;5559927;32;33586;-54
2022/03/03 10:07:35;;;;;;;35.30;18.27;;;;;;;7.73;40.41;100590.84;5558533;32;34249;-54
2022/03/03 10:10:41;;;;;;;28.52;16.05;;;;;;;7.91;39.35;100573.59;5556886;32;34363;-54
2022/03/03 10:13:44;;;;;;;28.40;17.10;;;;;;;8.00;38.90;100572.84;5562392;32;33758;-54
2022/03/03 10:16:47;;;;;;;24.20;16.58;;;;;;;8.11;39.01;100575.59;5565331;32;33219;-55
2022/03/03 10:20:10;;;;;;;25.85;17.08;;;;;;;8.08;38.54;100576.09;5559137;32;33309;-54
2022/03/03 10:23:12;;;;;;;29.52;17.37;;;;;;;8.13;39.02;100565.47;5562169;32;33705;-54
2022/03/03 10:26:14;;;;;;;27.33;16.10;;;;;;;8.35;37.73;100563.44;5564925;32;33692;-54
2022/03/03 10:29:19;;;;;;;26.65;17.70;;;;;;;8.20;38.90;100566.03;5560221;32;33150;-53
2022/03/03 10:32:25;;;;;;;31.87;18.45;;;;;;;8.05;39.06;100561.41;5559267;32;33784;-55
2022/03/03 10:35:28;;;;;;;67.22;21.27;;;;;;;8.20;39.21;100555.34;5551980;32;33764;-54
2022/03/03 10:38:31;;;;;;;24.60;16.67;;;;;;;8.40;40.99;100554.66;5559590;32;33607;-55
2022/03/03 10:41:46;;;;;;;33.50;19.00;;;;;;;8.50;38.93;100559.25;5551807;32;33729;-54
2022/03/03 10:45:03;;;;;;;25.88;15.38;;;;;;;8.23;40.32;100554.81;5558465;32;33183;-54
2022/03/03 10:48:06;;;;;;;24.90;15.05;;;;;;;8.30;38.73;100549.25;5561245;32;33959;-54
2022/03/03 10:51:13;;;;;;;23.08;15.75;;;;;;;8.31;39.15;100537.50;5568243;32;34448;-54
2022/03/03 10:54:15;;;;;;;22.23;15.02;;;;;;;8.53;38.80;100537.34;5556342;32;33727;-54
2022/03/03 10:57:43;;;;;;;25.77;15.60;;;;;;;8.76;38.17;100542.22;5549741;32;33758;-54
2022/03/03 11:00:45;;;;;;;23.10;15.75;;;;;;;8.60;38.46;100532.56;5556346;32;33595;-54
2022/03/03 11:03:52;;;;;;;24.27;15.15;;;;;;;8.52;39.36;100533.06;5565664;32;32305;-54
2022/03/03 11:06:55;;;;;;;24.20;14.80;;;;;;;8.72;38.33;100530.44;5568188;32;33661;-54
2022/03/03 11:09:58;;;;;;;26.27;15.50;;;;;;;8.66;38.83;100520.81;5564953;32;33798;-54
2022/03/03 11:13:02;;;;;;;21.27;13.98;;;;;;;8.53;39.32;100519.44;5552502;32;34348;-54
2022/03/03 11:16:04;;;;;;;24.75;15.20;;;;;;;8.64;39.37;100512.25;5549953;32;34387;-56
2022/03/03 11:19:09;;;;;;;24.67;15.07;;;;;;;8.72;38.51;100510.94;5551475;32;33312;-54
2022/03/03 11:22:14;;;;;;;21.83;14.50;;;;;;;8.77;38.39;100498.37;5562876;32;34422;-54
2022/03/03 11:25:28;;;;;;;19.07;14.43;;;;;;;8.88;37.98;100494.66;5566208;32;33728;-54
2022/03/03 11:28:35;;;;;;;20.75;13.68;;;;;;;8.70;38.93;100487.94;5560498;32;34830;-54
2022/03/03 11:31:43;;;;;;;21.37;14.18;;;;;;;9.04;38.13;100490.12;5559394;32;33728;-54
2022/03/03 11:34:46;;;;;;;20.58;13.25;;;;;;;9.24;38.10;100489.34;5564801;32;32392;-54
2022/03/03 11:37:52;;;;;;;20.30;14.37;;;;;;;9.20;38.58;100485.56;5559314;32;33591;-54
2022/03/03 11:41:00;;;;;;;22.92;14.70;;;;;;;9.08;37.89;100487.72;5562875;32;33808;-53
2022/03/03 11:44:05;;;;;;;21.30;14.00;;;;;;;9.15;38.18;100478.38;5561201;32;33703;-54
2022/03/03 11:47:26;;;;;;;23.70;14.82;;;;;;;9.06;37.95;100469.25;5563726;32;33644;-54
2022/03/03 11:50:29;;;;;;;22.35;14.13;;;;;;;8.98;38.03;100461.78;5561801;32;33723;-54
2022/03/03 11:53:31;;;;;;;24.40;14.48;;;;;;;8.91;38.20;100464.72;5562883;32;34477;-54
2022/03/03 11:56:34;;;;;;;20.55;14.27;;;;;;;8.79;39.39;100463.38;5553687;32;33859;-54
2022/03/03 11:59:45;;;;;;;19.92;14.27;;;;;;;8.86;39.33;100462.03;5557630;32;34196;-54
2022/03/03 12:02:54;;;;;;;17.17;12.40;;;;;;;9.18;38.07;100451.09;5557393;32;33259;-54
2022/03/03 12:06:13;;;;;;;19.15;12.95;;;;;;;9.32;37.49;100456.69;5567065;32;34383;-54
2022/03/03 12:09:30;;;;;;;24.20;13.20;;;;;;;9.41;37.26;100455.06;5561017;32;33618;-54
2022/03/03 12:12:33;;;;;;;19.75;14.23;;;;;;;9.51;36.99;100448.91;5557850;32;34986;-54
2022/03/03 12:15:39;;;;;;;25.67;14.75;;;;;;;9.70;36.10;100441.09;5564329;32;33305;-53
2022/03/03 12:18:49;;;;;;;21.10;15.95;;;;;;;9.72;36.05;100443.47;5568160;32;33601;-54
2022/03/03 12:22:01;;;;;;;21.33;14.02;;;;;;;9.46;37.22;100445.41;5559037;32;32168;-54
2022/03/03 12:25:07;;;;;;;23.35;15.43;;;;;;;9.23;37.49;100436.87;5549372;32;33951;-54
2022/03/03 12:28:25;;;;;;;22.40;14.77;;;;;;;8.97;38.07;100430.75;5561903;32;33744;-54
2022/03/03 12:31:29;;;;;;;22.10;14.85;;;;;;;9.21;37.19;100435.56;5560148;32;33734;-54
2022/03/03 12:34:32;;;;;;;23.12;16.67;;;;;;;8.86;38.59;100429.16;5556985;32;33618;-53
2022/03/03 12:37:41;;;;;;;23.38;15.20;;;;;;;8.83;38.09;100427.03;5560039;32;33644;-54
2022/03/03 12:40:50;;;;;;;25.05;14.50;;;;;;;8.96;37.93;100425.69;5552906;32;33805;-55
2022/03/03 12:44:12;;;;;;;25.73;15.95;;;;;;;9.01;38.30;100423.03;5564193;32;33625;-54
2022/03/03 12:47:15;;;;;;;21.42;15.05;;;;;;;9.10;37.87;100421.38;5566458;32;33695;-54
2022/03/03 12:50:25;;;;;;;23.38;17.12;;;;;;;9.06;37.42;100420.34;5565304;32;33619;-54
2022/03/03 12:53:36;;;;;;;28.38;15.52;;;;;;;8.99;38.69;100419.81;5566719;32;33699;-54
2022/03/03 12:56:41;;;;;;;21.40;15.45;;;;;;;9.17;37.68;100416.56;5567617;32;34417;-53
2022/03/03 12:59:46;;;;;;;23.77;15.93;;;;;;;9.31;37.37;100412.28;5554277;32;33711;-54
2022/03/03 13:02:55;;;;;;;23.33;15.40;;;;;;;9.32;37.27;100408.53;5557334;32;33158;-54
2022/03/03 13:05:58;;;;;;;24.70;15.25;;;;;;;9.38;36.89;100398.62;5567095;32;34337;-55
2022/03/03 13:09:04;;;;;;;20.75;14.90;;;;;;;9.35;36.76;100401.84;5568074;32;34436;-54
2022/03/03 13:12:07;;;;;;;25.58;15.98;;;;;;;9.41;36.74;100400.75;5557683;32;34355;-55
2022/03/03 13:15:09;;;;;;;22.50;16.02;;;;;;;9.31;37.10;100398.09;5560016;32;33744;-54
2022/03/03 13:18:20;;;;;;;66.12;49.88;;;;;;;9.36;37.06;100388.19;5558143;32;34255;-54
2022/03/03 13:21:30;;;;;;;25.20;17.77;;;;;;;9.60;36.64;100398.28;5553245;32;33640;-54
2022/03/03 13:24:32;;;;;;;21.65;16.98;;;;;;;9.47;37.27;100385.47;5550856;32;33636;-54
2022/03/03 13:27:49;;;;;;;219.75;112.97;;;;;;;9.49;37.83;100380.66;5551104;32;33769;-54
2022/03/03 13:30:51;;;;;;;40.95;26.60;;;;;;;9.53;37.00;100387.84;5559136;32;33681;-54
2022/03/03 13:34:02;;;;;;;31.65;23.62;;;;;;;9.67;36.08;100387.28;5555089;32;33783;-54
2022/03/03 13:37:15;;;;;;;23.52;16.40;;;;;;;9.79;36.19;100385.09;5567441;32;34023;-54
2022/03/03 13:40:19;;;;;;;23.50;15.48;;;;;;;9.76;36.11;100375.72;5558948;32;33737;-54
2022/03/03 13:43:25;;;;;;;21.75;14.90;;;;;;;9.67;36.44;100373.91;5556568;32;33643;-53
2022/03/03 13:47:01;;;;;;;27.37;16.85;;;;;;;9.45;37.14;100374.25;5564616;32;33710;-54
2022/03/03 13:50:06;;;;;;;22.70;16.27;;;;;;;9.52;37.29;100369.41;5560673;32;33529;-54
2022/03/03 13:53:18;;;;;;;22.30;15.52;;;;;;;9.51;36.82;100368.63;5570296;32;33674;-55
2022/03/03 13:56:26;;;;;;;28.08;16.55;;;;;;;9.72;36.62;100363.97;5564822;32;34340;-54
2022/03/03 13:59:28;;;;;;;;;;;;;;;9.84;36.25;100358.31;5567425;32;34495;-53
2022/03/03 14:02:31;;;;;;;22.73;15.98;;;;;;;9.76;36.46;100356.19;5569637;32;34034;-54
2022/03/03 14:05:51;;;;;;;23.38;15.82;;;;;;;9.89;35.19;100358.25;5561633;32;34382;-54
2022/03/03 14:08:53;;;;;;;22.30;15.50;;;;;;;9.88;35.20;100354.78;5550794;32;33792;-54
2022/03/03 14:12:14;;;;;;;22.13;15.32;;;;;;;9.91;36.04;100352.66;5550621;32;33590;-54
2022/03/03 14:15:19;;;;;;;21.37;15.48;;;;;;;9.92;36.07;100338.19;5561514;32;33410;-54
2022/03/03 14:18:24;;;;;;;22.65;15.27;;;;;;;9.76;35.74;100346.28;5555493;32;33683;-54
2022/03/03 14:21:27;;;;;;;25.12;16.20;;;;;;;9.59;36.43;100338.59;5564750;32;33621;-54
2022/03/03 14:24:30;;;;;;;22.37;15.52;;;;;;;9.52;36.31;100334.63;5557091;32;33691;-55
2022/03/03 14:27:34;;;;;;;22.80;16.42;;;;;;;9.40;36.29;100337.59;5566290;32;33768;-54
2022/03/03 14:30:37;;;;;;;22.95;15.00;;;;;;;9.54;36.04;100335.16;5552546;32;33769;-54
2022/03/03 14:33:40;;;;;;;22.30;15.43;;;;;;;9.52;37.51;100332.75;5566937;32;33830;-54
2022/03/03 14:37:03;;;;;;;24.45;15.73;;;;;;;9.59;37.46;100329.78;5568030;32;34460;-54
2022/03/03 14:40:07;;;;;;;22.13;14.98;;;;;;;9.86;36.28;100329.38;5563845;32;34272;-54
2022/03/03 14:43:10;;;;;;;31.83;21.25;;;;;;;9.99;35.98;100327.97;5566637;32;33654;-55
2022/03/03 14:46:12;;;;;;;60.88;48.70;;;;;;;9.88;36.99;100320.00;5561621;32;33770;-54
2022/03/03 14:49:15;;;;;;;41.97;32.72;;;;;;;9.82;37.19;100326.44;5563376;32;34478;-54
2022/03/03 14:52:17;;;;;;;29.73;20.62;;;;;;;9.77;37.21;100323.81;5561865;32;33765;-54
2022/03/03 14:55:20;;;;;;;29.70;16.95;;;;;;;9.77;36.95;100323.00;5559300;32;34483;-53
2022/03/03 14:58:22;;;;;;;27.10;15.77;;;;;;;9.74;36.95;100327.03;5557754;32;33679;-54
2022/03/03 15:01:27;;;;;;;25.27;16.00;;;;;;;9.81;36.29;100324.06;5550616;32;33749;-55
2022/03/03 15:04:30;;;;;;;21.30;15.68;;;;;;;9.61;37.05;100324.97;5550929;32;33602;-54
2022/03/03 15:07:32;;;;;;;27.40;15.48;;;;;;;9.58;37.06;100326.31;5560414;32;33727;-54
2022/03/03 15:10:34;;;;;;;23.25;17.23;;;;;;;9.81;35.50;100324.06;5562183;32;33758;-54
2022/03/03 15:13:37;;;;;;;34.92;22.37;;;;;;;9.78;36.00;100321.94;5555250;32;33540;-54
2022/03/03 15:16:39;;;;;;;21.30;16.08;;;;;;;9.60;37.46;100323.34;5566435;32;33663;-54
2022/03/03 15:19:42;;;;;;;27.05;15.60;;;;;;;9.52;38.21;100324.72;5569008;32;33725;-54
2022/03/03 15:22:45;;;;;;;23.25;15.45;;;;;;;9.53;38.11;100315.59;5566976;32;33691;-54
2022/03/03 15:25:47;;;;;;;24.70;15.88;;;;;;;9.55;36.97;100321.50;5557589;32;34489;-54
2022/03/03 15:28:49;;;;;;;45.50;16.67;;;;;;;9.50;38.04;100316.16;5563591;32;33853;-54
2022/03/03 15:31:52;;;;;;;26.08;17.52;;;;;;;9.47;38.73;100315.91;5551326;32;33632;-54
2022/03/03 15:38:16;;;;;;;28.30;17.08;;;;;;;9.34;38.28;100315.44;5566914;32;34377;-54
2022/03/03 15:41:18;;;;;;;29.40;19.02;;;;;;;9.35;38.34;100324.25;5556601;32;33718;-54
2022/03/03 15:44:28;;;;;;;25.67;18.48;;;;;;;9.26;38.27;100313.31;5550252;32;34439;-54
2022/03/03 15:47:31;;;;;;;41.72;31.92;;;;;;;9.22;38.42;100314.13;5549404;32;34703;-55
2022/03/03 15:50:33;;;;;;;29.98;20.60;;;;;;;9.12;39.00;100314.97;5567500;32;34478;-54
2022/03/03 15:53:35;;;;;;;26.67;18.42;;;;;;;9.13;38.73;100311.22;5567578;32;33677;-54
2022/03/03 15:56:39;;;;;;;28.40;17.20;;;;;;;9.03;39.29;100309.34;5569022;32;33722;-54
2022/03/03 15:59:42;;;;;;;23.25;17.70;;;;;;;8.94;39.60;100308.34;5550109;32;33696;-54
2022/03/03 16:02:44;;;;;;;36.65;25.85;;;;;;;8.93;39.80;100307.50;5549759;32;33734;-54
2022/03/03 16:05:47;;;;;;;24.17;17.30;;;;;;;9.18;38.28;100311.19;5549727;32;34037;-54
2022/03/03 16:08:49;;;;;;;25.42;17.40;;;;;;;9.21;38.22;100312.53;5549681;32;33768;-54
2022/03/03 16:11:52;;;;;;;26.33;17.70;;;;;;;9.15;38.57;100315.22;5562226;32;34511;-54
2022/03/03 16:14:54;;;;;;;24.87;18.15;;;;;;;9.10;38.87;100314.41;5569275;32;34570;-54
2022/03/03 16:18:12;;;;;;;26.37;17.83;;;;;;;9.18;38.71;100327.25;5560478;32;33761;-54
2022/03/03 16:21:16;;;;;;;28.77;18.15;;;;;;;8.98;39.95;100325.44;5562190;32;34306;-54
2022/03/03 16:24:19;;;;;;;27.60;17.98;;;;;;;8.87;40.84;100324.66;5568989;32;34448;-54
2022/03/03 16:27:31;;;;;;;23.45;17.90;;;;;;;8.77;40.81;100327.31;5560613;32;34354;-54
2022/03/03 16:30:34;;;;;;;49.35;35.90;;;;;;;8.75;40.46;100329.47;5564929;32;34429;-54
2022/03/03 16:33:38;;;;;;;47.60;34.05;;;;;;;8.81;40.45;100332.94;5560216;32;31665;-54
2022/03/03 16:36:42;;;;;;;35.25;23.38;;;;;;;8.70;40.39;100327.59;5555687;32;34190;-54
2022/03/03 16:39:44;;;;;;;26.80;20.50;;;;;;;8.76;40.40;100331.06;5561616;32;33198;-54
2022/03/03 16:42:47;;;;;;;27.83;20.17;;;;;;;8.73;40.94;100336.16;5567317;32;33740;-54
2022/03/03 16:45:49;;;;;;;31.70;20.75;;;;;;;8.78;40.19;100334.28;5558115;32;33872;-54
2022/03/03 16:48:54;;;;;;;30.83;20.20;;;;;;;8.77;41.67;100342.56;5568189;32;34288;-53
